sensor_id;sensor_type;location;lat;lon;timestamp;pressure;altitude;pressure_sealevel;temperature;humidity
32109;BME280;18624;50.042;8.436;2023-04-19T00:02:22;101294.16;;;10.87;97.83
32109;BME280;18624;50.042;8.436;2023-04-19T00:04:51;101218.22;;;10.43;97.39
32109;BME280;18624;50.042;8.436;2023-04-19T00:07:18;101284.41;;;10.83;97.37
32109;BME280;18624;50.042;8.436;2023-04-19T00:09:45;101289.47;;;10.84;97.80
32109;BME280;18624;50.042;8.436;2023-04-19T00:12:12;101290.69;;;10.80;98.18
32109;BME280;18624;50.042;8.436;2023-04-19T00:14:38;101273.13;;;10.77;98.15
32109;BME280;18624;50.042;8.436;2023-04-19T00:17:04;101279.41;;;10.74;98.38
32109;BME280;18624;50.042;8.436;2023-04-19T00:19:31;101297.81;;;10.74;98.59
32109;BME280;18624;50.042;8.436;2023-04-19T00:21:58;101285.66;;;10.75;99.16
32109;BME280;18624;50.042;8.436;2023-04-19T00:24:24;101284.53;;;10.72;99.32
32109;BME280;18624;50.042;8.436;2023-04-19T00:26:51;101284.41;;;10.83;98.77
32109;BME280;18624;50.042;8.436;2023-04-19T00:29:17;101196.47;;;10.22;98.47
32109;BME280;18624;50.042;8.436;2023-04-19T00:31:44;101266.59;;;10.64;99.01
32109;BME280;18624;50.042;8.436;2023-04-19T00:34:10;101242.00;;;10.53;98.35
32109;BME280;18624;50.042;8.436;2023-04-19T00:36:37;101280.50;;;10.80;98.99
32109;BME280;18624;50.042;8.436;2023-04-19T00:39:05;101283.66;;;10.79;99.01
32109;BME280;18624;50.042;8.436;2023-04-19T00:41:31;101216.78;;;10.31;98.97
32109;BME280;18624;50.042;8.436;2023-04-19T00:43:58;101264.16;;;10.73;99.00
32109;BME280;18624;50.042;8.436;2023-04-19T00:46:25;101275.75;;;10.84;98.76
32109;BME280;18624;50.042;8.436;2023-04-19T00:48:52;101275.09;;;10.77;98.90
32109;BME280;18624;50.042;8.436;2023-04-19T00:51:19;101202.28;;;10.31;99.21
32109;BME280;18624;50.042;8.436;2023-04-19T00:53:45;101269.69;;;10.66;100.00
32109;BME280;18624;50.042;8.436;2023-04-19T00:56:12;101269.66;;;10.70;100.00
32109;BME280;18624;50.042;8.436;2023-04-19T00:58:39;101194.13;;;10.24;99.54
32109;BME280;18624;50.042;8.436;2023-04-19T01:01:07;101266.19;;;10.62;100.00
32109;BME280;18624;50.042;8.436;2023-04-19T01:03:34;101257.75;;;10.49;100.00
32109;BME280;18624;50.042;8.436;2023-04-19T01:06:02;101264.31;;;10.55;100.00
32109;BME280;18624;50.042;8.436;2023-04-19T01:08:28;101249.88;;;10.51;100.00
32109;BME280;18624;50.042;8.436;2023-04-19T01:10:55;101248.31;;;10.50;100.00
32109;BME280;18624;50.042;8.436;2023-04-19T01:13:21;101248.63;;;10.59;100.00
32109;BME280;18624;50.042;8.436;2023-04-19T01:15:47;101253.34;;;10.59;100.00
32109;BME280;18624;50.042;8.436;2023-04-19T01:18:14;101232.69;;;10.47;100.00
32109;BME280;18624;50.042;8.436;2023-04-19T01:20:41;101147.47;;;9.89;100.00
32109;BME280;18624;50.042;8.436;2023-04-19T01:23:07;101247.94;;;10.48;100.00
32109;BME280;18624;50.042;8.436;2023-04-19T01:25:37;101242.88;;;10.47;100.00
32109;BME280;18624;50.042;8.436;2023-04-19T01:28:04;101217.13;;;10.37;100.00
32109;BME280;18624;50.042;8.436;2023-04-19T01:30:31;101191.41;;;10.20;100.00
32109;BME280;18624;50.042;8.436;2023-04-19T01:32:58;101247.44;;;10.60;100.00
32109;BME280;18624;50.042;8.436;2023-04-19T01:35:24;101132.59;;;9.90;100.00
32109;BME280;18624;50.042;8.436;2023-04-19T01:37:51;101242.38;;;10.59;100.00
32109;BME280;18624;50.042;8.436;2023-04-19T01:40:22;101240.84;;;10.54;100.00
32109;BME280;18624;50.042;8.436;2023-04-19T01:42:49;101228.25;;;10.60;100.00
32109;BME280;18624;50.042;8.436;2023-04-19T01:45:16;101183.56;;;10.26;100.00
32109;BME280;18624;50.042;8.436;2023-04-19T01:47:42;101228.59;;;10.62;100.00
32109;BME280;18624;50.042;8.436;2023-04-19T01:50:09;101231.75;;;10.61;100.00
32109;BME280;18624;50.042;8.436;2023-04-19T01:52:36;101233.75;;;10.57;100.00
32109;BME280;18624;50.042;8.436;2023-04-19T01:55:03;101233.47;;;10.48;100.00
32109;BME280;18624;50.042;8.436;2023-04-19T01:57:30;101223.69;;;10.47;100.00
32109;BME280;18624;50.042;8.436;2023-04-19T01:59:57;101220.59;;;10.45;100.00
32109;BME280;18624;50.042;8.436;2023-04-19T02:02:23;101222.94;;;10.43;100.00
32109;BME280;18624;50.042;8.436;2023-04-19T02:04:50;101213.97;;;10.38;100.00
32109;BME280;18624;50.042;8.436;2023-04-19T02:07:16;101219.09;;;10.36;100.00
32109;BME280;18624;50.042;8.436;2023-04-19T02:09:42;101206.63;;;10.32;100.00
32109;BME280;18624;50.042;8.436;2023-04-19T02:12:10;101217.50;;;10.35;100.00
32109;BME280;18624;50.042;8.436;2023-04-19T02:14:37;101214.34;;;10.41;100.00
32109;BME280;18624;50.042;8.436;2023-04-19T02:17:03;101133.09;;;9.82;100.00
32109;BME280;18624;50.042;8.436;2023-04-19T02:19:30;101148.97;;;9.98;100.00
32109;BME280;18624;50.042;8.436;2023-04-19T02:21:57;101208.53;;;10.35;100.00
32109;BME280;18624;50.042;8.436;2023-04-19T02:24:24;101201.19;;;10.21;100.00
32109;BME280;18624;50.042;8.436;2023-04-19T02:26:50;101202.34;;;10.27;100.00
32109;BME280;18624;50.042;8.436;2023-04-19T02:29:17;101199.19;;;10.29;100.00
32109;BME280;18624;50.042;8.436;2023-04-19T02:31:44;101203.47;;;10.30;100.00
32109;BME280;18624;50.042;8.436;2023-04-19T02:34:11;101194.88;;;10.31;100.00
32109;BME280;18624;50.042;8.436;2023-04-19T02:36:38;101201.56;;;10.27;100.00
32109;BME280;18624;50.042;8.436;2023-04-19T02:39:04;101192.56;;;10.26;100.00
32109;BME280;18624;50.042;8.436;2023-04-19T02:41:31;101196.13;;;10.20;100.00
32109;BME280;18624;50.042;8.436;2023-04-19T02:44:00;101197.69;;;10.24;100.00
32109;BME280;18624;50.042;8.436;2023-04-19T02:46:26;101193.75;;;10.22;100.00
32109;BME280;18624;50.042;8.436;2023-04-19T02:48:53;101198.44;;;10.21;100.00
32109;BME280;18624;50.042;8.436;2023-04-19T02:51:19;101192.97;;;10.25;100.00
32109;BME280;18624;50.042;8.436;2023-04-19T02:53:46;101189.78;;;10.30;100.00
32109;BME280;18624;50.042;8.436;2023-04-19T02:56:12;101183.97;;;10.24;100.00
32109;BME280;18624;50.042;8.436;2023-04-19T02:58:39;101183.16;;;10.24;100.00
32109;BME280;18624;50.042;8.436;2023-04-19T03:01:05;101185.50;;;10.29;100.00
32109;BME280;18624;50.042;8.436;2023-04-19T03:03:32;101193.34;;;10.27;100.00
32109;BME280;18624;50.042;8.436;2023-04-19T03:05:59;101189.88;;;10.19;100.00
32109;BME280;18624;50.042;8.436;2023-04-19T03:08:26;101186.41;;;10.11;100.00
32109;BME280;18624;50.042;8.436;2023-04-19T03:10:53;101189.13;;;10.15;100.00
32109;BME280;18624;50.042;8.436;2023-04-19T03:13:19;101179.66;;;10.23;100.00
32109;BME280;18624;50.042;8.436;2023-04-19T03:15:46;101043.13;;;9.39;100.00
32109;BME280;18624;50.042;8.436;2023-04-19T03:18:14;101165.22;;;10.19;100.00
32109;BME280;18624;50.042;8.436;2023-04-19T03:20:42;101167.91;;;10.23;100.00
32109;BME280;18624;50.042;8.436;2023-04-19T03:23:09;101166.41;;;10.18;100.00
32109;BME280;18624;50.042;8.436;2023-04-19T03:25:36;101159.31;;;10.21;100.00
32109;BME280;18624;50.042;8.436;2023-04-19T03:28:21;101161.75;;;10.11;100.00
32109;BME280;18624;50.042;8.436;2023-04-19T03:31:10;101164.13;;;10.09;100.00
32109;BME280;18624;50.042;8.436;2023-04-19T03:33:38;101166.13;;;10.05;100.00
32109;BME280;18624;50.042;8.436;2023-04-19T03:36:05;101154.94;;;9.85;100.00
32109;BME280;18624;50.042;8.436;2023-04-19T03:38:33;101163.13;;;9.89;100.00
32109;BME280;18624;50.042;8.436;2023-04-19T03:41:00;101147.13;;;9.84;100.00
32109;BME280;18624;50.042;8.436;2023-04-19T03:43:32;101152.19;;;9.85;100.00
32109;BME280;18624;50.042;8.436;2023-04-19T03:45:58;101108.59;;;9.64;100.00
32109;BME280;18624;50.042;8.436;2023-04-19T03:48:25;101147.56;;;9.82;100.00
32109;BME280;18624;50.042;8.436;2023-04-19T03:50:53;101138.16;;;9.83;100.00
32109;BME280;18624;50.042;8.436;2023-04-19T03:53:20;101147.09;;;9.91;100.00
32109;BME280;18624;50.042;8.436;2023-04-19T03:55:46;101141.56;;;9.95;100.00
32109;BME280;18624;50.042;8.436;2023-04-19T03:58:13;101137.69;;;9.92;100.00
32109;BME280;18624;50.042;8.436;2023-04-19T04:00:48;101105.81;;;9.68;100.00
32109;BME280;18624;50.042;8.436;2023-04-19T04:03:15;101136.91;;;9.92;100.00
32109;BME280;18624;50.042;8.436;2023-04-19T04:05:42;101134.63;;;9.86;100.00
32109;BME280;18624;50.042;8.436;2023-04-19T04:08:08;101134.25;;;9.81;100.00
32109;BME280;18624;50.042;8.436;2023-04-19T04:10:35;101136.66;;;9.75;100.00
32109;BME280;18624;50.042;8.436;2023-04-19T04:13:01;101137.50;;;9.69;100.00
32109;BME280;18624;50.042;8.436;2023-04-19T04:15:37;101147.25;;;9.70;100.00
32109;BME280;18624;50.042;8.436;2023-04-19T04:18:07;101135.53;;;9.69;100.00
32109;BME280;18624;50.042;8.436;2023-04-19T04:20:35;101142.25;;;9.61;100.00
32109;BME280;18624;50.042;8.436;2023-04-19T04:23:06;101133.31;;;9.53;100.00
32109;BME280;18624;50.042;8.436;2023-04-19T04:25:32;101153.94;;;9.65;100.00
32109;BME280;18624;50.042;8.436;2023-04-19T04:28:06;101125.16;;;9.46;100.00
32109;BME280;18624;50.042;8.436;2023-04-19T04:30:32;101154.69;;;9.73;100.00
32109;BME280;18624;50.042;8.436;2023-04-19T04:33:00;101153.81;;;9.79;100.00
32109;BME280;18624;50.042;8.436;2023-04-19T04:35:26;101159.25;;;9.86;100.00
32109;BME280;18624;50.042;8.436;2023-04-19T04:38:05;101154.16;;;9.85;100.00
32109;BME280;18624;50.042;8.436;2023-04-19T04:40:50;101154.47;;;9.94;100.00
32109;BME280;18624;50.042;8.436;2023-04-19T04:43:23;101158.00;;;9.95;100.00
32109;BME280;18624;50.042;8.436;2023-04-19T04:45:50;101158.41;;;9.93;100.00
32109;BME280;18624;50.042;8.436;2023-04-19T04:48:17;101150.56;;;9.95;100.00
32109;BME280;18624;50.042;8.436;2023-04-19T04:50:44;101149.03;;;9.90;100.00
32109;BME280;18624;50.042;8.436;2023-04-19T04:53:10;101158.34;;;10.00;100.00
32109;BME280;18624;50.042;8.436;2023-04-19T04:55:42;101150.13;;;10.00;100.00
32109;BME280;18624;50.042;8.436;2023-04-19T04:58:10;101153.22;;;10.06;100.00
32109;BME280;18624;50.042;8.436;2023-04-19T05:00:57;101150.53;;;9.99;100.00
32109;BME280;18624;50.042;8.436;2023-04-19T05:03:25;101152.13;;;9.96;100.00
32109;BME280;18624;50.042;8.436;2023-04-19T05:05:56;101144.72;;;9.93;100.00
32109;BME280;18624;50.042;8.436;2023-04-19T05:08:24;101158.28;;;10.04;100.00
32109;BME280;18624;50.042;8.436;2023-04-19T05:10:51;101120.31;;;9.68;100.00
32109;BME280;18624;50.042;8.436;2023-04-19T05:13:21;101152.47;;;9.98;100.00
32109;BME280;18624;50.042;8.436;2023-04-19T05:15:48;101138.34;;;10.03;100.00
32109;BME280;18624;50.042;8.436;2023-04-19T05:18:15;101143.09;;;9.99;100.00
32109;BME280;18624;50.042;8.436;2023-04-19T05:20:42;101141.91;;;10.00;100.00
32109;BME280;18624;50.042;8.436;2023-04-19T05:23:16;101091.00;;;9.65;100.00
32109;BME280;18624;50.042;8.436;2023-04-19T05:25:43;101136.81;;;9.99;100.00
32109;BME280;18624;50.042;8.436;2023-04-19T05:28:10;101075.81;;;9.57;100.00
32109;BME280;18624;50.042;8.436;2023-04-19T05:30:44;101111.59;;;9.77;100.00
32109;BME280;18624;50.042;8.436;2023-04-19T05:33:11;101137.97;;;10.05;100.00
32109;BME280;18624;50.042;8.436;2023-04-19T05:35:37;101137.91;;;10.08;100.00
32109;BME280;18624;50.042;8.436;2023-04-19T05:38:04;101123.53;;;10.01;100.00
32109;BME280;18624;50.042;8.436;2023-04-19T05:40:31;101139.94;;;10.04;100.00
32109;BME280;18624;50.042;8.436;2023-04-19T05:42:57;101136.38;;;10.04;100.00
32109;BME280;18624;50.042;8.436;2023-04-19T05:45:24;101130.44;;;10.12;100.00
32109;BME280;18624;50.042;8.436;2023-04-19T05:47:51;101127.31;;;10.14;100.00
32109;BME280;18624;50.042;8.436;2023-04-19T05:50:36;101119.47;;;10.12;100.00
32109;BME280;18624;50.042;8.436;2023-04-19T05:53:21;101064.66;;;9.82;100.00
32109;BME280;18624;50.042;8.436;2023-04-19T05:55:49;101069.97;;;9.96;100.00
32109;BME280;18624;50.042;8.436;2023-04-19T05:58:17;101118.16;;;10.31;100.00
32109;BME280;18624;50.042;8.436;2023-04-19T06:00:44;101030.28;;;9.77;100.00
32109;BME280;18624;50.042;8.436;2023-04-19T06:03:14;101129.03;;;10.38;100.00
32109;BME280;18624;50.042;8.436;2023-04-19T06:05:41;101118.78;;;10.43;100.00
32109;BME280;18624;50.042;8.436;2023-04-19T06:08:08;101097.09;;;10.18;100.00
32109;BME280;18624;50.042;8.436;2023-04-19T06:10:36;101134.88;;;10.41;100.00
32109;BME280;18624;50.042;8.436;2023-04-19T06:13:21;101118.09;;;10.35;100.00
32109;BME280;18624;50.042;8.436;2023-04-19T06:15:48;101123.56;;;10.35;100.00
32109;BME280;18624;50.042;8.436;2023-04-19T06:18:15;101120.44;;;10.36;100.00
32109;BME280;18624;50.042;8.436;2023-04-19T06:20:45;101128.22;;;10.42;100.00
32109;BME280;18624;50.042;8.436;2023-04-19T06:23:13;101135.56;;;10.48;100.00
32109;BME280;18624;50.042;8.436;2023-04-19T06:25:40;101090.81;;;10.24;100.00
32109;BME280;18624;50.042;8.436;2023-04-19T06:28:06;101127.16;;;10.62;100.00
32109;BME280;18624;50.042;8.436;2023-04-19T06:30:33;101149.34;;;10.75;100.00
32109;BME280;18624;50.042;8.436;2023-04-19T06:32:59;101141.53;;;10.74;97.96
32109;BME280;18624;50.042;8.436;2023-04-19T06:35:26;101151.72;;;10.73;98.29
32109;BME280;18624;50.042;8.436;2023-04-19T06:37:52;101152.53;;;10.70;97.20
32109;BME280;18624;50.042;8.436;2023-04-19T06:40:19;101138.94;;;10.63;97.17
32109;BME280;18624;50.042;8.436;2023-04-19T06:42:45;101140.06;;;10.65;97.51
32109;BME280;18624;50.042;8.436;2023-04-19T06:45:12;101138.94;;;10.63;98.10
32109;BME280;18624;50.042;8.436;2023-04-19T06:47:40;101155.47;;;10.52;97.24
32109;BME280;18624;50.042;8.436;2023-04-19T06:50:07;101158.22;;;10.52;96.75
32109;BME280;18624;50.042;8.436;2023-04-19T06:52:33;101146.88;;;10.54;95.58
32109;BME280;18624;50.042;8.436;2023-04-19T06:55:00;101127.88;;;10.36;95.26
32109;BME280;18624;50.042;8.436;2023-04-19T06:57:26;101148.16;;;10.42;94.95
32109;BME280;18624;50.042;8.436;2023-04-19T06:59:54;101139.94;;;10.42;94.17
32109;BME280;18624;50.042;8.436;2023-04-19T07:02:20;101082.69;;;10.13;93.97
32109;BME280;18624;50.042;8.436;2023-04-19T07:04:47;101142.63;;;10.49;93.10
32109;BME280;18624;50.042;8.436;2023-04-19T07:07:14;101069.06;;;10.06;92.44
32109;BME280;18624;50.042;8.436;2023-04-19T07:09:41;101095.94;;;10.19;92.43
32109;BME280;18624;50.042;8.436;2023-04-19T07:12:07;101132.91;;;10.41;92.25
32109;BME280;18624;50.042;8.436;2023-04-19T07:14:34;101129.34;;;10.44;90.32
32109;BME280;18624;50.042;8.436;2023-04-19T07:17:00;101055.56;;;9.88;91.78
32109;BME280;18624;50.042;8.436;2023-04-19T07:19:27;101131.34;;;10.40;92.01
32109;BME280;18624;50.042;8.436;2023-04-19T07:21:54;101120.03;;;10.38;91.46
32109;BME280;18624;50.042;8.436;2023-04-19T07:24:20;101125.38;;;10.49;90.78
32109;BME280;18624;50.042;8.436;2023-04-19T07:26:47;101127.25;;;10.55;89.73
32109;BME280;18624;50.042;8.436;2023-04-19T07:29:13;101051.09;;;10.05;88.69
32109;BME280;18624;50.042;8.436;2023-04-19T07:31:40;101126.34;;;10.65;88.05
32109;BME280;18624;50.042;8.436;2023-04-19T07:34:07;101131.97;;;10.55;85.82
32109;BME280;18624;50.042;8.436;2023-04-19T07:36:34;101127.31;;;10.52;86.15
32109;BME280;18624;50.042;8.436;2023-04-19T07:39:02;101128.50;;;10.51;83.75
32109;BME280;18624;50.042;8.436;2023-04-19T07:41:31;101121.03;;;10.51;83.78
32109;BME280;18624;50.042;8.436;2023-04-19T07:43:57;101116.75;;;10.50;84.43
32109;BME280;18624;50.042;8.436;2023-04-19T07:46:24;101040.16;;;10.02;84.99
32109;BME280;18624;50.042;8.436;2023-04-19T07:48:50;101122.88;;;10.61;84.66
32109;BME280;18624;50.042;8.436;2023-04-19T07:51:17;101024.91;;;10.04;82.63
32109;BME280;18624;50.042;8.436;2023-04-19T07:53:45;101120.88;;;10.65;81.56
32109;BME280;18624;50.042;8.436;2023-04-19T07:56:12;101112.66;;;10.65;83.99
32109;BME280;18624;50.042;8.436;2023-04-19T07:58:39;101120.00;;;10.72;83.66
32109;BME280;18624;50.042;8.436;2023-04-19T08:01:06;101117.47;;;10.85;81.04
32109;BME280;18624;50.042;8.436;2023-04-19T08:03:33;101114.38;;;10.83;79.49
32109;BME280;18624;50.042;8.436;2023-04-19T08:06:01;101118.72;;;10.80;81.46
32109;BME280;18624;50.042;8.436;2023-04-19T08:08:30;101116.81;;;10.77;80.23
32109;BME280;18624;50.042;8.436;2023-04-19T08:10:59;101046.81;;;10.38;80.31
32109;BME280;18624;50.042;8.436;2023-04-19T08:13:28;101012.59;;;10.16;79.57
32109;BME280;18624;50.042;8.436;2023-04-19T08:15:54;101116.69;;;10.84;79.49
32109;BME280;18624;50.042;8.436;2023-04-19T08:18:24;101111.56;;;10.90;79.75
32109;BME280;18624;50.042;8.436;2023-04-19T08:20:50;101103.94;;;11.01;77.14
32109;BME280;18624;50.042;8.436;2023-04-19T08:23:17;101007.97;;;10.44;76.54
32109;BME280;18624;50.042;8.436;2023-04-19T08:25:51;101103.91;;;11.05;76.57
32109;BME280;18624;50.042;8.436;2023-04-19T08:28:17;101103.84;;;11.08;76.92
32109;BME280;18624;50.042;8.436;2023-04-19T08:30:44;101096.69;;;11.14;76.78
32109;BME280;18624;50.042;8.436;2023-04-19T08:33:11;101109.06;;;11.26;75.48
32109;BME280;18624;50.042;8.436;2023-04-19T08:35:38;100987.47;;;10.55;76.13
32109;BME280;18624;50.042;8.436;2023-04-19T08:38:07;101064.28;;;11.06;73.52
32109;BME280;18624;50.042;8.436;2023-04-19T08:40:34;101101.97;;;11.29;73.99
32109;BME280;18624;50.042;8.436;2023-04-19T08:43:04;101102.09;;;11.22;72.46
32109;BME280;18624;50.042;8.436;2023-04-19T08:45:32;101101.63;;;11.27;72.90
32109;BME280;18624;50.042;8.436;2023-04-19T08:48:00;101026.88;;;10.92;72.86
32109;BME280;18624;50.042;8.436;2023-04-19T08:50:28;101099.97;;;11.56;73.25
32109;BME280;18624;50.042;8.436;2023-04-19T08:53:11;101101.06;;;11.62;69.25
32109;BME280;18624;50.042;8.436;2023-04-19T08:55:41;101097.88;;;11.64;69.59
32109;BME280;18624;50.042;8.436;2023-04-19T08:58:29;101091.13;;;11.69;70.91
32109;BME280;18624;50.042;8.436;2023-04-19T09:01:03;101053.00;;;11.51;72.21
32109;BME280;18624;50.042;8.436;2023-04-19T09:03:30;101090.13;;;11.82;72.11
32109;BME280;18624;50.042;8.436;2023-04-19T09:06:12;101029.84;;;11.52;71.39
32109;BME280;18624;50.042;8.436;2023-04-19T09:08:39;101088.03;;;11.90;70.22
32109;BME280;18624;50.042;8.436;2023-04-19T09:11:07;101024.53;;;11.41;69.57
32109;BME280;18624;50.042;8.436;2023-04-19T09:13:34;101084.22;;;11.84;70.74
32109;BME280;18624;50.042;8.436;2023-04-19T09:16:06;101017.25;;;11.54;69.26
32109;BME280;18624;50.042;8.436;2023-04-19T09:18:52;101075.41;;;11.93;68.01
32109;BME280;18624;50.042;8.436;2023-04-19T09:21:29;101062.47;;;11.93;68.69
32109;BME280;18624;50.042;8.436;2023-04-19T09:23:56;101008.31;;;11.50;69.29
32109;BME280;18624;50.042;8.436;2023-04-19T09:26:23;101061.06;;;12.05;68.55
32109;BME280;18624;50.042;8.436;2023-04-19T09:28:58;101076.16;;;12.16;66.07
32109;BME280;18624;50.042;8.436;2023-04-19T09:31:28;101067.28;;;12.29;64.89
32109;BME280;18624;50.042;8.436;2023-04-19T09:34:16;101027.41;;;12.21;66.09
32109;BME280;18624;50.042;8.436;2023-04-19T09:36:43;101054.28;;;12.49;64.28
32109;BME280;18624;50.042;8.436;2023-04-19T09:39:10;101058.53;;;12.54;64.51
32109;BME280;18624;50.042;8.436;2023-04-19T09:41:53;101052.25;;;12.53;64.38
32109;BME280;18624;50.042;8.436;2023-04-19T09:44:20;101036.75;;;12.43;64.26
32109;BME280;18624;50.042;8.436;2023-04-19T09:46:50;101055.53;;;12.64;63.04
32109;BME280;18624;50.042;8.436;2023-04-19T09:49:23;101049.63;;;12.66;62.91
32109;BME280;18624;50.042;8.436;2023-04-19T09:52:12;101057.78;;;12.70;62.55
32109;BME280;18624;50.042;8.436;2023-04-19T09:54:40;101041.44;;;12.62;63.61
32109;BME280;18624;50.042;8.436;2023-04-19T09:57:07;101034.81;;;12.60;63.80
32109;BME280;18624;50.042;8.436;2023-04-19T09:59:33;101046.38;;;12.71;63.66
32109;BME280;18624;50.042;8.436;2023-04-19T10:02:00;101047.91;;;12.72;63.73
32109;BME280;18624;50.042;8.436;2023-04-19T10:04:28;101043.94;;;12.73;64.82
32109;BME280;18624;50.042;8.436;2023-04-19T10:07:14;101035.97;;;12.79;65.17
32109;BME280;18624;50.042;8.436;2023-04-19T10:09:57;101047.19;;;12.88;62.82
32109;BME280;18624;50.042;8.436;2023-04-19T10:12:47;101035.63;;;12.77;63.07
32109;BME280;18624;50.042;8.436;2023-04-19T10:15:37;101049.13;;;12.87;62.53
32109;BME280;18624;50.042;8.436;2023-04-19T10:18:18;101024.72;;;12.89;62.86
32109;BME280;18624;50.042;8.436;2023-04-19T10:21:00;101033.84;;;13.03;62.20
32109;BME280;18624;50.042;8.436;2023-04-19T10:23:30;101038.91;;;13.04;62.52
32109;BME280;18624;50.042;8.436;2023-04-19T10:25:57;101022.75;;;12.90;62.57
32109;BME280;18624;50.042;8.436;2023-04-19T10:28:27;101008.56;;;12.91;63.47
32109;BME280;18624;50.042;8.436;2023-04-19T10:31:02;100959.78;;;12.59;62.27
32109;BME280;18624;50.042;8.436;2023-04-19T10:33:36;101018.38;;;13.09;62.93
32109;BME280;18624;50.042;8.436;2023-04-19T10:36:03;101010.34;;;13.14;61.34
32109;BME280;18624;50.042;8.436;2023-04-19T10:38:44;101025.69;;;12.99;60.62
32109;BME280;18624;50.042;8.436;2023-04-19T10:41:14;101008.72;;;13.01;62.38
32109;BME280;18624;50.042;8.436;2023-04-19T10:48:58;101016.31;;;13.13;58.42
32109;BME280;18624;50.042;8.436;2023-04-19T10:51:27;100967.38;;;12.72;57.63
32109;BME280;18624;50.042;8.436;2023-04-19T10:53:55;101020.00;;;13.06;58.08
32109;BME280;18624;50.042;8.436;2023-04-19T11:01:38;100996.88;;;13.04;57.34
32109;BME280;18624;50.042;8.436;2023-04-19T11:04:07;100996.19;;;13.00;57.95
32109;BME280;18624;50.042;8.436;2023-04-19T11:06:35;100989.22;;;12.95;58.97
32109;BME280;18624;50.042;8.436;2023-04-19T11:09:02;100994.63;;;12.99;56.13
32109;BME280;18624;50.042;8.436;2023-04-19T11:11:33;100975.09;;;12.77;56.62
32109;BME280;18624;50.042;8.436;2023-04-19T11:14:02;100977.25;;;12.85;56.98
32109;BME280;18624;50.042;8.436;2023-04-19T11:16:30;100932.47;;;12.68;57.47
32109;BME280;18624;50.042;8.436;2023-04-19T11:19:29;100908.31;;;12.60;56.95
32109;BME280;18624;50.042;8.436;2023-04-19T11:21:57;100962.63;;;13.05;56.46
32109;BME280;18624;50.042;8.436;2023-04-19T11:24:24;100952.50;;;13.02;56.49
32109;BME280;18624;50.042;8.436;2023-04-19T11:26:51;100957.81;;;13.09;54.75
32109;BME280;18624;50.042;8.436;2023-04-19T11:29:20;100963.16;;;13.16;52.70
32109;BME280;18624;50.042;8.436;2023-04-19T11:31:47;100963.25;;;13.12;52.35
32109;BME280;18624;50.042;8.436;2023-04-19T11:34:13;100948.53;;;13.03;53.80
32109;BME280;18624;50.042;8.436;2023-04-19T11:36:51;100948.72;;;12.96;52.57
32109;BME280;18624;50.042;8.436;2023-04-19T11:39:18;100965.81;;;13.03;53.01
32109;BME280;18624;50.042;8.436;2023-04-19T11:41:44;100954.06;;;13.03;52.34
32109;BME280;18624;50.042;8.436;2023-04-19T11:44:16;100853.66;;;12.46;50.42
32109;BME280;18624;50.042;8.436;2023-04-19T11:47:03;100933.84;;;12.93;50.29
32109;BME280;18624;50.042;8.436;2023-04-19T11:49:32;100931.63;;;12.88;50.51
32109;BME280;18624;50.042;8.436;2023-04-19T11:52:00;100933.94;;;12.89;50.56
32109;BME280;18624;50.042;8.436;2023-04-19T11:54:31;100922.06;;;12.92;48.85
32109;BME280;18624;50.042;8.436;2023-04-19T11:57:02;100919.22;;;12.96;50.95
32109;BME280;18624;50.042;8.436;2023-04-19T11:59:30;100927.13;;;12.94;47.59
32109;BME280;18624;50.042;8.436;2023-04-19T12:02:07;100912.78;;;12.86;47.88
32109;BME280;18624;50.042;8.436;2023-04-19T12:04:35;100911.91;;;13.06;46.46
32109;BME280;18624;50.042;8.436;2023-04-19T12:07:03;100899.19;;;12.96;47.86
32109;BME280;18624;50.042;8.436;2023-04-19T12:09:34;100891.69;;;13.12;48.18
32109;BME280;18624;50.042;8.436;2023-04-19T12:12:02;100916.78;;;13.31;44.99
32109;BME280;18624;50.042;8.436;2023-04-19T12:14:29;100842.69;;;12.91;44.75
32109;BME280;18624;50.042;8.436;2023-04-19T12:17:10;100857.22;;;12.91;44.05
32109;BME280;18624;50.042;8.436;2023-04-19T12:19:43;100901.28;;;13.37;44.74
32109;BME280;18624;50.042;8.436;2023-04-19T12:22:16;100904.03;;;13.37;44.99
32109;BME280;18624;50.042;8.436;2023-04-19T12:24:44;100895.88;;;13.33;43.72
32109;BME280;18624;50.042;8.436;2023-04-19T12:27:11;100843.44;;;13.08;44.16
32109;BME280;18624;50.042;8.436;2023-04-19T12:29:38;100804.81;;;12.82;43.81
32109;BME280;18624;50.042;8.436;2023-04-19T12:32:04;100883.03;;;13.43;45.17
32109;BME280;18624;50.042;8.436;2023-04-19T12:34:31;100885.47;;;13.54;43.66
32109;BME280;18624;50.042;8.436;2023-04-19T12:36:58;100880.19;;;13.47;42.68
32109;BME280;18624;50.042;8.436;2023-04-19T12:39:24;100880.19;;;13.47;42.29
32109;BME280;18624;50.042;8.436;2023-04-19T12:41:51;100878.38;;;13.40;42.75
32109;BME280;18624;50.042;8.436;2023-04-19T12:44:17;100870.94;;;13.53;42.44
32109;BME280;18624;50.042;8.436;2023-04-19T12:46:44;100848.97;;;13.37;42.43
32109;BME280;18624;50.042;8.436;2023-04-19T12:49:10;100806.31;;;13.00;40.54
32109;BME280;18624;50.042;8.436;2023-04-19T12:51:36;100884.88;;;13.46;40.96
32109;BME280;18624;50.042;8.436;2023-04-19T12:54:03;100864.97;;;13.42;39.85
32109;BME280;18624;50.042;8.436;2023-04-19T12:56:29;100836.38;;;13.23;41.21
32109;BME280;18624;50.042;8.436;2023-04-19T12:58:56;100875.09;;;13.45;39.57
32109;BME280;18624;50.042;8.436;2023-04-19T13:01:22;100873.66;;;13.40;39.70
32109;BME280;18624;50.042;8.436;2023-04-19T13:03:49;100871.13;;;13.46;38.78
32109;BME280;18624;50.042;8.436;2023-04-19T13:06:16;100858.03;;;13.50;39.62
32109;BME280;18624;50.042;8.436;2023-04-19T13:08:42;100779.28;;;13.11;40.50